sensor_id;sensor_type;location;lat;lon;timestamp;P1;durP1;ratioP1;P2;durP2;ratioP2
10489;SDS011;35569;48.402;10.670;2022-12-20T00:00:09;12.80;;;11.80;;
10489;SDS011;35569;48.402;10.670;2022-12-20T00:00:45;12.63;;;11.65;;
10489;SDS011;35569;48.402;10.670;2022-12-20T00:01:21;13.00;;;12.00;;
10489;SDS011;35569;48.402;10.670;2022-12-20T00:01:54;13.25;;;12.15;;
10489;SDS011;35569;48.402;10.670;2022-12-20T00:02:29;12.45;;;11.40;;
10489;SDS011;35569;48.402;10.670;2022-12-20T00:03:01;13.40;;;12.15;;
10489;SDS011;35569;48.402;10.670;2022-12-20T00:03:34;13.70;;;11.80;;
10489;SDS011;35569;48.402;10.670;2022-12-20T00:04:09;13.35;;;12.25;;
10489;SDS011;35569;48.402;10.670;2022-12-20T00:04:42;13.88;;;12.70;;
10489;SDS011;35569;48.402;10.670;2022-12-20T00:05:17;14.07;;;12.88;;
10489;SDS011;35569;48.402;10.670;2022-12-20T00:05:49;13.95;;;12.65;;
10489;SDS011;35569;48.402;10.670;2022-12-20T00:06:22;14.33;;;13.10;;
10489;SDS011;35569;48.402;10.670;2022-12-20T00:06:57;15.23;;;13.82;;
10489;SDS011;35569;48.402;10.670;2022-12-20T00:07:30;13.83;;;12.53;;
10489;SDS011;35569;48.402;10.670;2022-12-20T00:08:03;14.73;;;13.23;;
10489;SDS011;35569;48.402;10.670;2022-12-20T00:08:39;14.80;;;13.50;;
10489;SDS011;35569;48.402;10.670;2022-12-20T00:09:11;13.88;;;12.50;;
10489;SDS011;35569;48.402;10.670;2022-12-20T00:09:46;14.85;;;13.65;;
10489;SDS011;35569;48.402;10.670;2022-12-20T00:10:18;13.65;;;12.55;;
10489;SDS011;35569;48.402;10.670;2022-12-20T00:10:51;15.63;;;14.13;;
10489;SDS011;35569;48.402;10.670;2022-12-20T00:11:26;14.38;;;13.10;;
10489;SDS011;35569;48.402;10.670;2022-12-20T00:11:59;13.98;;;12.88;;
10489;SDS011;35569;48.402;10.670;2022-12-20T00:12:33;13.73;;;12.48;;
10489;SDS011;35569;48.402;10.670;2022-12-20T00:13:06;13.95;;;12.60;;
10489;SDS011;35569;48.402;10.670;2022-12-20T00:13:38;14.80;;;13.50;;
10489;SDS011;35569;48.402;10.670;2022-12-20T00:14:13;14.40;;;13.00;;
10489;SDS011;35569;48.402;10.670;2022-12-20T00:14:45;13.90;;;12.60;;
10489;SDS011;35569;48.402;10.670;2022-12-20T00:15:18;13.13;;;12.13;;
10489;SDS011;35569;48.402;10.670;2022-12-20T00:16:04;14.52;;;13.00;;
10489;SDS011;35569;48.402;10.670;2022-12-20T00:16:37;15.15;;;13.73;;
10489;SDS011;35569;48.402;10.670;2022-12-20T00:17:12;13.45;;;12.45;;
10489;SDS011;35569;48.402;10.670;2022-12-20T00:17:45;16.40;;;13.23;;
10489;SDS011;35569;48.402;10.670;2022-12-20T00:18:17;13.88;;;12.68;;
10489;SDS011;35569;48.402;10.670;2022-12-20T00:18:53;14.38;;;13.07;;
10489;SDS011;35569;48.402;10.670;2022-12-20T00:19:26;14.13;;;12.60;;
10489;SDS011;35569;48.402;10.670;2022-12-20T00:19:58;14.45;;;13.15;;
10489;SDS011;35569;48.402;10.670;2022-12-20T00:20:33;13.95;;;12.68;;
10489;SDS011;35569;48.402;10.670;2022-12-20T00:21:07;15.20;;;13.90;;
10489;SDS011;35569;48.402;10.670;2022-12-20T00:21:40;13.90;;;12.70;;
10489;SDS011;35569;48.402;10.670;2022-12-20T00:22:15;15.25;;;13.85;;
10489;SDS011;35569;48.402;10.670;2022-12-20T00:22:47;14.23;;;12.90;;
10489;SDS011;35569;48.402;10.670;2022-12-20T00:23:19;16.35;;;14.27;;
10489;SDS011;35569;48.402;10.670;2022-12-20T00:23:54;14.50;;;13.15;;
10489;SDS011;35569;48.402;10.670;2022-12-20T00:24:27;15.63;;;14.23;;
10489;SDS011;35569;48.402;10.670;2022-12-20T00:25:03;14.57;;;13.37;;
10489;SDS011;35569;48.402;10.670;2022-12-20T00:25:36;16.27;;;14.68;;
10489;SDS011;35569;48.402;10.670;2022-12-20T00:26:09;14.35;;;13.05;;
10489;SDS011;35569;48.402;10.670;2022-12-20T00:26:43;14.10;;;12.73;;
10489;SDS011;35569;48.402;10.670;2022-12-20T00:27:17;13.90;;;12.80;;
10489;SDS011;35569;48.402;10.670;2022-12-20T00:27:50;13.93;;;12.67;;
10489;SDS011;35569;48.402;10.670;2022-12-20T00:28:22;14.05;;;12.85;;
10489;SDS011;35569;48.402;10.670;2022-12-20T00:28:57;14.63;;;13.40;;
10489;SDS011;35569;48.402;10.670;2022-12-20T00:29:31;16.07;;;14.67;;
10489;SDS011;35569;48.402;10.670;2022-12-20T00:30:07;14.10;;;12.70;;
10489;SDS011;35569;48.402;10.670;2022-12-20T00:30:40;15.10;;;13.60;;
10489;SDS011;35569;48.402;10.670;2022-12-20T00:31:15;14.50;;;13.20;;
10489;SDS011;35569;48.402;10.670;2022-12-20T00:31:51;14.70;;;13.40;;
10489;SDS011;35569;48.402;10.670;2022-12-20T00:32:23;15.50;;;14.00;;
10489;SDS011;35569;48.402;10.670;2022-12-20T00:32:56;14.40;;;13.20;;
10489;SDS011;35569;48.402;10.670;2022-12-20T00:33:31;13.97;;;12.87;;
10489;SDS011;35569;48.402;10.670;2022-12-20T00:34:04;14.87;;;13.60;;
10489;SDS011;35569;48.402;10.670;2022-12-20T00:34:36;16.73;;;15.33;;
10489;SDS011;35569;48.402;10.670;2022-12-20T00:35:11;15.48;;;13.93;;
10489;SDS011;35569;48.402;10.670;2022-12-20T00:35:44;17.03;;;15.30;;
10489;SDS011;35569;48.402;10.670;2022-12-20T00:36:16;16.13;;;14.73;;
10489;SDS011;35569;48.402;10.670;2022-12-20T00:36:51;15.40;;;14.10;;
10489;SDS011;35569;48.402;10.670;2022-12-20T00:37:24;15.53;;;14.00;;
10489;SDS011;35569;48.402;10.670;2022-12-20T00:37:56;15.60;;;14.10;;
10489;SDS011;35569;48.402;10.670;2022-12-20T00:38:31;16.37;;;14.83;;
10489;SDS011;35569;48.402;10.670;2022-12-20T00:39:04;15.27;;;13.97;;
10489;SDS011;35569;48.402;10.670;2022-12-20T00:39:37;15.27;;;13.77;;
10489;SDS011;35569;48.402;10.670;2022-12-20T00:40:12;14.13;;;12.95;;
10489;SDS011;35569;48.402;10.670;2022-12-20T00:40:44;14.50;;;13.13;;
10489;SDS011;35569;48.402;10.670;2022-12-20T00:41:18;14.37;;;13.23;;
10489;SDS011;35569;48.402;10.670;2022-12-20T00:41:54;15.83;;;14.43;;
10489;SDS011;35569;48.402;10.670;2022-12-20T00:42:26;16.13;;;14.47;;
10489;SDS011;35569;48.402;10.670;2022-12-20T00:42:59;15.63;;;14.33;;
10489;SDS011;35569;48.402;10.670;2022-12-20T00:43:35;15.20;;;13.90;;
10489;SDS011;35569;48.402;10.670;2022-12-20T00:44:07;15.17;;;13.87;;
10489;SDS011;35569;48.402;10.670;2022-12-20T00:44:42;15.70;;;14.23;;
10489;SDS011;35569;48.402;10.670;2022-12-20T00:45:15;14.73;;;13.37;;
10489;SDS011;35569;48.402;10.670;2022-12-20T00:45:47;15.20;;;13.90;;
10489;SDS011;35569;48.402;10.670;2022-12-20T00:46:22;15.97;;;14.50;;
10489;SDS011;35569;48.402;10.670;2022-12-20T00:46:57;15.27;;;13.87;;
10489;SDS011;35569;48.402;10.670;2022-12-20T00:47:30;14.60;;;13.30;;
10489;SDS011;35569;48.402;10.670;2022-12-20T00:48:03;15.40;;;14.00;;
10489;SDS011;35569;48.402;10.670;2022-12-20T00:48:38;15.73;;;13.73;;
10489;SDS011;35569;48.402;10.670;2022-12-20T00:49:10;15.30;;;13.90;;
10489;SDS011;35569;48.402;10.670;2022-12-20T00:49:43;13.73;;;12.60;;
10489;SDS011;35569;48.402;10.670;2022-12-20T00:50:18;14.00;;;12.87;;
10489;SDS011;35569;48.402;10.670;2022-12-20T00:50:50;14.53;;;13.30;;
10489;SDS011;35569;48.402;10.670;2022-12-20T00:51:23;14.07;;;12.83;;
10489;SDS011;35569;48.402;10.670;2022-12-20T00:51:56;14.27;;;13.07;;
10489;SDS011;35569;48.402;10.670;2022-12-20T00:52:30;13.00;;;11.90;;
10489;SDS011;35569;48.402;10.670;2022-12-20T00:53:03;14.80;;;13.40;;
10489;SDS011;35569;48.402;10.670;2022-12-20T00:53:36;15.20;;;13.90;;
10489;SDS011;35569;48.402;10.670;2022-12-20T00:54:08;14.07;;;12.77;;
10489;SDS011;35569;48.402;10.670;2022-12-20T00:54:43;13.90;;;12.40;;
10489;SDS011;35569;48.402;10.670;2022-12-20T00:55:15;12.30;;;11.20;;
10489;SDS011;35569;48.402;10.670;2022-12-20T00:55:47;13.50;;;12.40;;
10489;SDS011;35569;48.402;10.670;2022-12-20T00:56:22;14.00;;;12.73;;
10489;SDS011;35569;48.402;10.670;2022-12-20T00:56:58;13.77;;;12.47;;
10489;SDS011;35569;48.402;10.670;2022-12-20T00:57:31;13.73;;;12.50;;
10489;SDS011;35569;48.402;10.670;2022-12-20T00:58:06;14.20;;;13.07;;
10489;SDS011;35569;48.402;10.670;2022-12-20T00:58:40;13.30;;;12.23;;
10489;SDS011;35569;48.402;10.670;2022-12-20T00:59:13;13.83;;;12.57;;
10489;SDS011;35569;48.402;10.670;2022-12-20T00:59:48;14.00;;;12.57;;
10489;SDS011;35569;48.402;10.670;2022-12-20T01:00:21;14.90;;;13.40;;
10489;SDS011;35569;48.402;10.670;2022-12-20T01:00:53;15.70;;;14.23;;
10489;SDS011;35569;48.402;10.670;2022-12-20T01:01:30;15.00;;;13.80;;
10489;SDS011;35569;48.402;10.670;2022-12-20T01:02:06;15.60;;;14.02;;
10489;SDS011;35569;48.402;10.670;2022-12-20T01:02:39;16.70;;;15.10;;
10489;SDS011;35569;48.402;10.670;2022-12-20T01:03:11;16.40;;;14.80;;
10489;SDS011;35569;48.402;10.670;2022-12-20T01:03:43;16.30;;;14.35;;
10489;SDS011;35569;48.402;10.670;2022-12-20T01:04:19;18.33;;;16.40;;
10489;SDS011;35569;48.402;10.670;2022-12-20T01:04:51;17.77;;;16.07;;
10489;SDS011;35569;48.402;10.670;2022-12-20T01:05:26;19.50;;;17.70;;
10489;SDS011;35569;48.402;10.670;2022-12-20T01:05:59;19.05;;;17.17;;
10489;SDS011;35569;48.402;10.670;2022-12-20T01:06:32;19.53;;;17.50;;
10489;SDS011;35569;48.402;10.670;2022-12-20T01:07:07;18.92;;;17.13;;
10489;SDS011;35569;48.402;10.670;2022-12-20T01:07:39;19.38;;;17.50;;
10489;SDS011;35569;48.402;10.670;2022-12-20T01:08:11;19.13;;;17.33;;
10489;SDS011;35569;48.402;10.670;2022-12-20T01:08:46;19.37;;;17.40;;
10489;SDS011;35569;48.402;10.670;2022-12-20T01:09:19;19.48;;;17.60;;
10489;SDS011;35569;48.402;10.670;2022-12-20T01:09:51;21.30;;;19.17;;
10489;SDS011;35569;48.402;10.670;2022-12-20T01:10:26;20.85;;;18.70;;
10489;SDS011;35569;48.402;10.670;2022-12-20T01:10:58;19.13;;;17.40;;
10489;SDS011;35569;48.402;10.670;2022-12-20T01:11:32;19.30;;;17.50;;
10489;SDS011;35569;48.402;10.670;2022-12-20T01:12:08;20.23;;;18.33;;
10489;SDS011;35569;48.402;10.670;2022-12-20T01:12:40;19.70;;;17.60;;
10489;SDS011;35569;48.402;10.670;2022-12-20T01:13:12;18.35;;;16.65;;
10489;SDS011;35569;48.402;10.670;2022-12-20T01:13:48;19.80;;;17.65;;
10489;SDS011;35569;48.402;10.670;2022-12-20T01:14:22;21.35;;;17.35;;
10489;SDS011;35569;48.402;10.670;2022-12-20T01:14:54;18.63;;;16.83;;
10489;SDS011;35569;48.402;10.670;2022-12-20T01:15:29;18.20;;;16.38;;
10489;SDS011;35569;48.402;10.670;2022-12-20T01:16:02;18.73;;;16.92;;
10489;SDS011;35569;48.402;10.670;2022-12-20T01:16:39;19.90;;;18.10;;
10489;SDS011;35569;48.402;10.670;2022-12-20T01:17:18;21.35;;;18.63;;
10489;SDS011;35569;48.402;10.670;2022-12-20T01:17:50;19.80;;;18.00;;
10489;SDS011;35569;48.402;10.670;2022-12-20T01:18:22;22.38;;;17.60;;
10489;SDS011;35569;48.402;10.670;2022-12-20T01:18:55;20.05;;;18.13;;
10489;SDS011;35569;48.402;10.670;2022-12-20T01:19:30;22.38;;;17.85;;
10489;SDS011;35569;48.402;10.670;2022-12-20T01:20:02;21.20;;;19.20;;
10489;SDS011;35569;48.402;10.670;2022-12-20T01:20:36;19.55;;;17.73;;
10489;SDS011;35569;48.402;10.670;2022-12-20T01:21:11;20.60;;;17.95;;
10489;SDS011;35569;48.402;10.670;2022-12-20T01:21:45;20.58;;;17.75;;
10489;SDS011;35569;48.402;10.670;2022-12-20T01:22:17;19.95;;;17.95;;
10489;SDS011;35569;48.402;10.670;2022-12-20T01:22:52;19.45;;;17.65;;
10489;SDS011;35569;48.402;10.670;2022-12-20T01:23:24;21.77;;;19.48;;
10489;SDS011;35569;48.402;10.670;2022-12-20T01:23:56;20.42;;;18.42;;
10489;SDS011;35569;48.402;10.670;2022-12-20T01:24:31;20.48;;;18.50;;
10489;SDS011;35569;48.402;10.670;2022-12-20T01:25:04;20.13;;;18.02;;
10489;SDS011;35569;48.402;10.670;2022-12-20T01:25:37;19.75;;;17.85;;
10489;SDS011;35569;48.402;10.670;2022-12-20T01:26:13;18.88;;;17.05;;
10489;SDS011;35569;48.402;10.670;2022-12-20T01:26:47;19.70;;;17.80;;
10489;SDS011;35569;48.402;10.670;2022-12-20T01:27:22;20.17;;;18.27;;
10489;SDS011;35569;48.402;10.670;2022-12-20T01:27:54;19.25;;;17.35;;
10489;SDS011;35569;48.402;10.670;2022-12-20T01:28:27;17.95;;;16.13;;
10489;SDS011;35569;48.402;10.670;2022-12-20T01:29:00;17.40;;;15.70;;
10489;SDS011;35569;48.402;10.670;2022-12-20T01:29:35;18.63;;;16.70;;
10489;SDS011;35569;48.402;10.670;2022-12-20T01:30:07;18.77;;;17.02;;
10489;SDS011;35569;48.402;10.670;2022-12-20T01:30:41;18.55;;;16.85;;
10489;SDS011;35569;48.402;10.670;2022-12-20T01:31:16;18.00;;;16.30;;
10489;SDS011;35569;48.402;10.670;2022-12-20T01:31:52;18.73;;;16.73;;
10489;SDS011;35569;48.402;10.670;2022-12-20T01:32:25;19.23;;;16.95;;
10489;SDS011;35569;48.402;10.670;2022-12-20T01:33:00;17.90;;;16.30;;
10489;SDS011;35569;48.402;10.670;2022-12-20T01:33:32;18.73;;;16.87;;
10489;SDS011;35569;48.402;10.670;2022-12-20T01:34:04;18.45;;;16.80;;
10489;SDS011;35569;48.402;10.670;2022-12-20T01:34:39;19.08;;;17.17;;
10489;SDS011;35569;48.402;10.670;2022-12-20T01:35:12;18.63;;;16.83;;
10489;SDS011;35569;48.402;10.670;2022-12-20T01:35:53;19.67;;;17.60;;
10489;SDS011;35569;48.402;10.670;2022-12-20T01:36:30;19.55;;;17.50;;
10489;SDS011;35569;48.402;10.670;2022-12-20T01:37:03;18.23;;;16.42;;
10489;SDS011;35569;48.402;10.670;2022-12-20T01:37:38;18.48;;;16.67;;
10489;SDS011;35569;48.402;10.670;2022-12-20T01:38:10;19.92;;;18.02;;
10489;SDS011;35569;48.402;10.670;2022-12-20T01:38:42;18.92;;;17.02;;
10489;SDS011;35569;48.402;10.670;2022-12-20T01:39:15;18.10;;;16.48;;
10489;SDS011;35569;48.402;10.670;2022-12-20T01:39:50;18.20;;;16.60;;
10489;SDS011;35569;48.402;10.670;2022-12-20T01:40:22;17.57;;;15.90;;
10489;SDS011;35569;48.402;10.670;2022-12-20T01:40:55;17.63;;;15.82;;
10489;SDS011;35569;48.402;10.670;2022-12-20T01:41:28;17.83;;;16.00;;
10489;SDS011;35569;48.402;10.670;2022-12-20T01:42:04;16.93;;;15.40;;
10489;SDS011;35569;48.402;10.670;2022-12-20T01:42:36;16.90;;;15.37;;
10489;SDS011;35569;48.402;10.670;2022-12-20T01:43:09;18.77;;;16.97;;
10489;SDS011;35569;48.402;10.670;2022-12-20T01:43:47;18.05;;;16.55;;
10489;SDS011;35569;48.402;10.670;2022-12-20T01:45:26;18.73;;;17.00;;
10489;SDS011;35569;48.402;10.670;2022-12-20T01:46:03;17.92;;;16.15;;
10489;SDS011;35569;48.402;10.670;2022-12-20T01:46:37;18.65;;;16.75;;
10489;SDS011;35569;48.402;10.670;2022-12-20T01:47:12;17.83;;;16.13;;
10489;SDS011;35569;48.402;10.670;2022-12-20T01:47:47;16.27;;;14.85;;
10489;SDS011;35569;48.402;10.670;2022-12-20T01:48:20;17.63;;;16.00;;
10489;SDS011;35569;48.402;10.670;2022-12-20T01:48:58;18.38;;;16.52;;
10489;SDS011;35569;48.402;10.670;2022-12-20T01:49:33;17.58;;;15.30;;
10489;SDS011;35569;48.402;10.670;2022-12-20T01:50:07;18.63;;;16.13;;
10489;SDS011;35569;48.402;10.670;2022-12-20T01:50:43;18.35;;;16.75;;
10489;SDS011;35569;48.402;10.670;2022-12-20T01:51:15;17.60;;;15.65;;
10489;SDS011;35569;48.402;10.670;2022-12-20T01:51:49;17.80;;;16.10;;
10489;SDS011;35569;48.402;10.670;2022-12-20T01:52:28;17.87;;;16.27;;
10489;SDS011;35569;48.402;10.670;2022-12-20T01:53:03;17.70;;;15.93;;
10489;SDS011;35569;48.402;10.670;2022-12-20T01:53:35;16.65;;;15.05;;
10489;SDS011;35569;48.402;10.670;2022-12-20T01:54:11;17.98;;;16.17;;
10489;SDS011;35569;48.402;10.670;2022-12-20T01:54:47;17.45;;;15.77;;
10489;SDS011;35569;48.402;10.670;2022-12-20T01:55:22;15.32;;;13.90;;
10489;SDS011;35569;48.402;10.670;2022-12-20T01:55:59;17.30;;;15.70;;
10489;SDS011;35569;48.402;10.670;2022-12-20T01:56:35;16.55;;;14.95;;
10489;SDS011;35569;48.402;10.670;2022-12-20T01:57:09;15.93;;;14.50;;
10489;SDS011;35569;48.402;10.670;2022-12-20T01:57:48;17.27;;;15.48;;
10489;SDS011;35569;48.402;10.670;2022-12-20T01:58:22;17.02;;;15.38;;
10489;SDS011;35569;48.402;10.670;2022-12-20T01:58:54;17.13;;;15.65;;
10489;SDS011;35569;48.402;10.670;2022-12-20T01:59:31;17.73;;;15.87;;
10489;SDS011;35569;48.402;10.670;2022-12-20T02:00:06;17.57;;;15.97;;
10489;SDS011;35569;48.402;10.670;2022-12-20T02:00:46;18.03;;;16.10;;
10489;SDS011;35569;48.402;10.670;2022-12-20T02:01:21;16.73;;;15.18;;
10489;SDS011;35569;48.402;10.670;2022-12-20T02:01:54;18.67;;;15.93;;
10489;SDS011;35569;48.402;10.670;2022-12-20T02:02:33;16.95;;;15.15;;
10489;SDS011;35569;48.402;10.670;2022-12-20T02:03:09;16.70;;;15.00;;
10489;SDS011;35569;48.402;10.670;2022-12-20T02:03:43;18.83;;;16.85;;
10489;SDS011;35569;48.402;10.670;2022-12-20T02:04:16;17.00;;;15.38;;
10489;SDS011;35569;48.402;10.670;2022-12-20T02:04:51;17.42;;;15.73;;
10489;SDS011;35569;48.402;10.670;2022-12-20T02:05:23;18.02;;;16.23;;
10489;SDS011;35569;48.402;10.670;2022-12-20T02:05:56;15.55;;;14.25;;
10489;SDS011;35569;48.402;10.670;2022-12-20T02:06:31;17.33;;;15.63;;
10489;SDS011;35569;48.402;10.670;2022-12-20T02:07:04;18.30;;;16.50;;
10489;SDS011;35569;48.402;10.670;2022-12-20T02:07:38;16.88;;;15.38;;
10489;SDS011;35569;48.402;10.670;2022-12-20T02:08:14;18.60;;;16.35;;
10489;SDS011;35569;48.402;10.670;2022-12-20T02:08:48;16.90;;;15.20;;
10489;SDS011;35569;48.402;10.670;2022-12-20T02:09:21;15.93;;;14.35;;
10489;SDS011;35569;48.402;10.670;2022-12-20T02:09:57;16.47;;;14.97;;
10489;SDS011;35569;48.402;10.670;2022-12-20T02:10:46;20.67;;;14.52;;
10489;SDS011;35569;48.402;10.670;2022-12-20T02:11:33;15.20;;;14.00;;
10489;SDS011;35569;48.402;10.670;2022-12-20T02:12:20;16.73;;;15.23;;
10489;SDS011;35569;48.402;10.670;2022-12-20T02:12:56;16.87;;;15.37;;
10489;SDS011;35569;48.402;10.670;2022-12-20T02:13:36;16.35;;;14.65;;
10489;SDS011;35569;48.402;10.670;2022-12-20T02:14:13;16.55;;;15.00;;
10489;SDS011;35569;48.402;10.670;2022-12-20T02:14:58;16.50;;;14.83;;
10489;SDS011;35569;48.402;10.670;2022-12-20T02:15:38;17.13;;;15.43;;
10489;SDS011;35569;48.402;10.670;2022-12-20T02:16:16;16.13;;;14.68;;
10489;SDS011;35569;48.402;10.670;2022-12-20T02:16:54;16.80;;;15.20;;
10489;SDS011;35569;48.402;10.670;2022-12-20T02:17:34;16.30;;;14.70;;
10489;SDS011;35569;48.402;10.670;2022-12-20T02:18:16;15.43;;;13.88;;
10489;SDS011;35569;48.402;10.670;2022-12-20T02:18:54;16.48;;;14.98;;
10489;SDS011;35569;48.402;10.670;2022-12-20T02:19:38;16.17;;;14.68;;
10489;SDS011;35569;48.402;10.670;2022-12-20T02:21:32;16.53;;;15.03;;
10489;SDS011;35569;48.402;10.670;2022-12-20T02:22:13;15.80;;;14.35;;
10489;SDS011;35569;48.402;10.670;2022-12-20T02:22:51;15.73;;;14.18;;
10489;SDS011;35569;48.402;10.670;2022-12-20T02:23:42;15.20;;;13.82;;
10489;SDS011;35569;48.402;10.670;2022-12-20T02:25:37;14.95;;;13.55;;
10489;SDS011;35569;48.402;10.670;2022-12-20T02:26:28;14.73;;;13.25;;
10489;SDS011;35569;48.402;10.670;2022-12-20T02:28:00;14.90;;;13.40;;
10489;SDS011;35569;48.402;10.670;2022-12-20T02:28:40;15.70;;;14.13;;
10489;SDS011;35569;48.402;10.670;2022-12-20T02:29:30;14.38;;;13.13;;
10489;SDS011;35569;48.402;10.670;2022-12-20T02:30:10;15.15;;;13.65;;
10489;SDS011;35569;48.402;10.670;2022-12-20T02:30:48;16.70;;;14.50;;
10489;SDS011;35569;48.402;10.670;2022-12-20T02:31:23;15.18;;;13.68;;
10489;SDS011;35569;48.402;10.670;2022-12-20T02:31:59;14.65;;;13.25;;
10489;SDS011;35569;48.402;10.670;2022-12-20T02:32:38;15.10;;;13.85;;
10489;SDS011;35569;48.402;10.670;2022-12-20T02:33:13;14.82;;;13.52;;
10489;SDS011;35569;48.402;10.670;2022-12-20T02:33:48;14.47;;;13.07;;
10489;SDS011;35569;48.402;10.670;2022-12-20T02:34:23;14.80;;;13.40;;
10489;SDS011;35569;48.402;10.670;2022-12-20T02:34:56;15.20;;;13.80;;
10489;SDS011;35569;48.402;10.670;2022-12-20T02:35:33;14.85;;;13.63;;
10489;SDS011;35569;48.402;10.670;2022-12-20T02:36:07;15.53;;;14.10;;
10489;SDS011;35569;48.402;10.670;2022-12-20T02:36:40;15.40;;;14.00;;
10489;SDS011;35569;48.402;10.670;2022-12-20T02:37:15;15.27;;;13.73;;
10489;SDS011;35569;48.402;10.670;2022-12-20T02:37:48;14.57;;;13.30;;
10489;SDS011;35569;48.402;10.670;2022-12-20T02:38:23;15.00;;;13.70;;
10489;SDS011;35569;48.402;10.670;2022-12-20T02:39:01;14.35;;;12.98;;
10489;SDS011;35569;48.402;10.670;2022-12-20T02:39:33;14.50;;;13.30;;
10489;SDS011;35569;48.402;10.670;2022-12-20T02:40:07;13.40;;;12.17;;
10489;SDS011;35569;48.402;10.670;2022-12-20T02:40:43;15.10;;;13.80;;
10489;SDS011;35569;48.402;10.670;2022-12-20T02:41:16;14.23;;;13.03;;
10489;SDS011;35569;48.402;10.670;2022-12-20T02:41:52;13.87;;;12.57;;
10489;SDS011;35569;48.402;10.670;2022-12-20T02:42:29;12.43;;;11.43;;
10489;SDS011;35569;48.402;10.670;2022-12-20T02:43:03;14.87;;;13.67;;
10489;SDS011;35569;48.402;10.670;2022-12-20T02:44:06;14.67;;;13.47;;
10489;SDS011;35569;48.402;10.670;2022-12-20T02:44:57;12.80;;;11.75;;
10489;SDS011;35569;48.402;10.670;2022-12-20T02:45:50;15.07;;;13.48;;
10489;SDS011;35569;48.402;10.670;2022-12-20T02:46:23;14.77;;;13.40;;
10489;SDS011;35569;48.402;10.670;2022-12-20T02:46:57;13.32;;;12.25;;
10489;SDS011;35569;48.402;10.670;2022-12-20T02:47:32;14.57;;;13.07;;
10489;SDS011;35569;48.402;10.670;2022-12-20T02:48:09;14.10;;;12.85;;
10489;SDS011;35569;48.402;10.670;2022-12-20T02:48:42;14.20;;;13.00;;
10489;SDS011;35569;48.402;10.670;2022-12-20T02:49:15;14.38;;;13.18;;
10489;SDS011;35569;48.402;10.670;2022-12-20T02:49:51;13.10;;;12.10;;
10489;SDS011;35569;48.402;10.670;2022-12-20T02:50:25;14.05;;;12.75;;
10489;SDS011;35569;48.402;10.670;2022-12-20T02:51:01;14.52;;;12.95;;
10489;SDS011;35569;48.402;10.670;2022-12-20T02:51:37;13.73;;;12.43;;
10489;SDS011;35569;48.402;10.670;2022-12-20T02:52:10;13.55;;;12.32;;
10489;SDS011;35569;48.402;10.670;2022-12-20T02:52:44;13.48;;;12.38;;
10489;SDS011;35569;48.402;10.670;2022-12-20T02:53:22;13.27;;;12.07;;
10489;SDS011;35569;48.402;10.670;2022-12-20T02:53:54;14.00;;;12.80;;
10489;SDS011;35569;48.402;10.670;2022-12-20T02:54:28;14.68;;;13.40;;
10489;SDS011;35569;48.402;10.670;2022-12-20T02:55:03;13.27;;;12.07;;
10489;SDS011;35569;48.402;10.670;2022-12-20T02:55:40;13.68;;;12.52;;
10489;SDS011;35569;48.402;10.670;2022-12-20T02:56:18;12.93;;;11.73;;
10489;SDS011;35569;48.402;10.670;2022-12-20T02:56:57;15.00;;;13.52;;
10489;SDS011;35569;48.402;10.670;2022-12-20T02:57:33;13.40;;;12.30;;
10489;SDS011;35569;48.402;10.670;2022-12-20T02:58:11;13.45;;;12.30;;
10489;SDS011;35569;48.402;10.670;2022-12-20T02:58:49;13.83;;;12.57;;
10489;SDS011;35569;48.402;10.670;2022-12-20T02:59:27;14.47;;;13.17;;
10489;SDS011;35569;48.402;10.670;2022-12-20T03:00:03;13.63;;;12.32;;
10489;SDS011;35569;48.402;10.670;2022-12-20T03:00:41;13.30;;;12.20;;
10489;SDS011;35569;48.402;10.670;2022-12-20T03:01:19;11.93;;;11.00;;
10489;SDS011;35569;48.402;10.670;2022-12-20T03:01:54;13.47;;;12.37;;
10489;SDS011;35569;48.402;10.670;2022-12-20T03:02:30;14.18;;;12.85;;
10489;SDS011;35569;48.402;10.670;2022-12-20T03:03:26;13.10;;;11.90;;
10489;SDS011;35569;48.402;10.670;2022-12-20T03:03:58;12.63;;;11.63;;
10489;SDS011;35569;48.402;10.670;2022-12-20T03:04:34;13.40;;;12.30;;
10489;SDS011;35569;48.402;10.670;2022-12-20T03:05:08;12.25;;;11.25;;
10489;SDS011;35569;48.402;10.670;2022-12-20T03:05:42;12.13;;;11.13;;
10489;SDS011;35569;48.402;10.670;2022-12-20T03:06:21;13.67;;;12.47;;
10489;SDS011;35569;48.402;10.670;2022-12-20T03:06:55;13.23;;;12.03;;
10489;SDS011;35569;48.402;10.670;2022-12-20T03:07:28;13.43;;;12.20;;
10489;SDS011;35569;48.402;10.670;2022-12-20T03:08:04;12.13;;;11.23;;
10489;SDS011;35569;48.402;10.670;2022-12-20T03:08:36;11.65;;;10.75;;
10489;SDS011;35569;48.402;10.670;2022-12-20T03:09:09;12.30;;;11.25;;
10489;SDS011;35569;48.402;10.670;2022-12-20T03:09:44;11.90;;;11.00;;
10489;SDS011;35569;48.402;10.670;2022-12-20T03:10:18;12.33;;;11.33;;
10489;SDS011;35569;48.402;10.670;2022-12-20T03:10:52;12.30;;;11.15;;
10489;SDS011;35569;48.402;10.670;2022-12-20T03:11:27;11.52;;;10.60;;
10489;SDS011;35569;48.402;10.670;2022-12-20T03:12:00;11.07;;;10.27;;
10489;SDS011;35569;48.402;10.670;2022-12-20T03:12:34;10.70;;;9.77;;
10489;SDS011;35569;48.402;10.670;2022-12-20T03:13:09;11.60;;;10.70;;
10489;SDS011;35569;48.402;10.670;2022-12-20T03:13:49;10.20;;;9.40;;
10489;SDS011;35569;48.402;10.670;2022-12-20T03:14:21;11.40;;;10.60;;
10489;SDS011;35569;48.402;10.670;2022-12-20T03:14:59;11.00;;;10.15;;
10489;SDS011;35569;48.402;10.670;2022-12-20T03:15:31;10.73;;;9.73;;
10489;SDS011;35569;48.402;10.670;2022-12-20T03:16:06;10.93;;;10.02;;
10489;SDS011;35569;48.402;10.670;2022-12-20T03:16:44;10.90;;;10.10;;
10489;SDS011;35569;48.402;10.670;2022-12-20T03:17:16;10.80;;;9.88;;
10489;SDS011;35569;48.402;10.670;2022-12-20T03:17:49;11.47;;;10.57;;
10489;SDS011;35569;48.402;10.670;2022-12-20T03:18:24;11.20;;;10.30;;
10489;SDS011;35569;48.402;10.670;2022-12-20T03:18:57;10.57;;;9.73;;
10489;SDS011;35569;48.402;10.670;2022-12-20T03:19:32;11.20;;;10.30;;
10489;SDS011;35569;48.402;10.670;2022-12-20T03:20:05;10.10;;;9.30;;
10489;SDS011;35569;48.402;10.670;2022-12-20T03:20:38;12.10;;;10.98;;
10489;SDS011;35569;48.402;10.670;2022-12-20T03:21:13;10.55;;;9.77;;
10489;SDS011;35569;48.402;10.670;2022-12-20T03:21:45;11.88;;;10.73;;
10489;SDS011;35569;48.402;10.670;2022-12-20T03:22:18;10.10;;;9.40;;
10489;SDS011;35569;48.402;10.670;2022-12-20T03:22:50;10.98;;;10.13;;
10489;SDS011;35569;48.402;10.670;2022-12-20T03:23:25;10.95;;;9.95;;
10489;SDS011;35569;48.402;10.670;2022-12-20T03:24:16;10.80;;;9.90;;
10489;SDS011;35569;48.402;10.670;2022-12-20T03:25:11;10.52;;;9.82;;
10489;SDS011;35569;48.402;10.670;2022-12-20T03:26:02;10.98;;;10.18;;
10489;SDS011;35569;48.402;10.670;2022-12-20T03:27:03;12.20;;;11.13;;
10489;SDS011;35569;48.402;10.670;2022-12-20T03:27:55;11.98;;;10.98;;